createdAt,value
2018-09-08T00:04:38.350Z,99976.00
2018-09-08T00:09:42.383Z,99918.00
2018-09-08T00:14:45.444Z,99888.00
2018-09-08T00:19:54.742Z,99856.00
2018-09-08T00:25:04.117Z,99818.00
2018-09-08T00:30:09.146Z,99789.00
2018-09-08T00:35:12.942Z,99784.00
2018-09-08T00:40:16.735Z,99814.00
2018-09-08T00:45:20.765Z,99907.00
2018-09-08T00:50:24.779Z,99994.00
2018-09-08T00:55:28.847Z,100027.00
2018-09-08T01:00:32.879Z,100022.00
2018-09-08T01:05:36.927Z,99989.00
2018-09-08T01:10:41.314Z,99948.00
2018-09-08T01:15:45.319Z,99917.00
2018-09-08T01:20:49.097Z,99892.00
2018-09-08T01:25:53.434Z,99881.00
2018-09-08T01:30:57.503Z,99868.00
2018-09-08T01:36:01.531Z,99876.00
2018-09-08T01:41:08.413Z,99849.00
2018-09-08T01:46:12.435Z,99827.00
2018-09-08T01:51:16.473Z,99797.00
2018-09-08T01:56:20.515Z,99771.00
2018-09-08T02:01:24.521Z,99708.00
2018-09-08T02:06:28.289Z,99646.00
2018-09-08T02:11:32.309Z,99634.00
2018-09-08T02:16:36.097Z,99620.00
2018-09-08T02:21:40.099Z,99611.00
2018-09-08T02:26:43.886Z,99618.00
2018-09-08T02:31:47.664Z,99608.00
2018-09-08T02:36:52.058Z,99579.00
2018-09-08T02:41:55.856Z,99577.00
2018-09-08T02:46:59.852Z,99567.00
2018-09-08T02:52:02.425Z,99552.00
2018-09-08T02:57:04.966Z,99523.00
2018-09-08T03:02:07.563Z,99518.00
2018-09-08T03:07:12.945Z,99532.00
2018-09-08T03:12:15.572Z,99507.00
2018-09-08T03:17:18.164Z,99512.00
2018-09-08T03:22:21.137Z,99514.00
2018-09-08T03:27:23.993Z,99516.00
2018-09-08T03:32:26.570Z,99511.00
2018-09-08T03:37:29.191Z,99511.00
2018-09-08T03:42:31.774Z,99522.00
2018-09-08T03:47:34.405Z,99530.00
2018-09-08T03:52:37.014Z,99531.00
2018-09-08T03:57:39.858Z,99545.00
2018-09-08T04:02:43.934Z,99537.00
2018-09-08T04:07:47.994Z,99543.00
2018-09-08T04:12:52.671Z,99552.00
2018-09-08T04:17:56.760Z,99556.00
2018-09-08T04:23:00.566Z,99559.00
2018-09-08T04:28:04.631Z,99565.00
2018-09-08T04:33:08.467Z,99557.00
2018-09-08T04:38:12.512Z,99556.00
2018-09-08T04:43:16.618Z,99520.00
2018-09-08T04:48:20.709Z,99529.00
2018-09-08T04:53:24.769Z,99531.00
2018-09-08T04:58:28.814Z,99538.00
2018-09-08T05:03:32.658Z,99548.00
2018-09-08T05:08:36.507Z,99542.00
2018-09-08T05:13:40.307Z,99540.00
2018-09-08T05:18:44.190Z,99537.00
2018-09-08T05:23:48.271Z,99551.00
2018-09-08T05:28:52.117Z,99571.00
2018-09-08T05:33:56.159Z,99569.00
2018-09-08T05:39:00.937Z,99568.00
2018-09-08T05:44:05.053Z,99572.00
2018-09-08T05:49:09.015Z,99593.00
2018-09-08T05:54:13.089Z,99644.00
2018-09-08T05:59:17.200Z,99763.00
2018-09-08T06:04:21.316Z,99955.00
2018-09-08T06:09:25.411Z,100142.00
2018-09-08T06:14:30.590Z,100356.00
2018-09-08T06:19:34.731Z,100547.00
2018-09-08T06:24:38.596Z,100707.00
2018-09-08T06:29:42.666Z,100817.00
2018-09-08T06:34:46.898Z,100891.00
2018-09-08T06:39:57.527Z,100987.00
2018-09-08T06:45:01.675Z,100952.00
2018-09-08T06:50:05.759Z,100909.00
2018-09-08T06:55:09.828Z,100952.00
2018-09-08T07:00:13.922Z,101086.00
2018-09-08T07:05:17.770Z,101200.00
2018-09-08T07:10:21.814Z,101375.00
2018-09-08T07:15:25.640Z,101403.00
2018-09-08T07:20:29.693Z,101403.00
2018-09-08T07:25:33.650Z,101405.00
2018-09-08T07:30:39.779Z,101404.00
2018-09-08T07:35:43.820Z,101410.00
2018-09-08T07:40:47.629Z,101416.00
2018-09-08T07:45:51.819Z,101409.00
2018-09-08T07:50:55.645Z,101418.00
2018-09-08T07:56:06.163Z,101415.00
2018-09-08T08:01:10.204Z,101422.00
2018-09-08T08:06:14.306Z,101423.00
2018-09-08T08:11:18.117Z,101419.00
2018-09-08T08:16:22.166Z,101427.00
2018-09-08T08:21:26.262Z,101423.00
2018-09-08T08:26:30.124Z,101418.00
2018-09-08T08:31:34.232Z,101425.00
2018-09-08T08:36:38.066Z,101423.00
2018-09-08T08:41:42.112Z,101422.00
2018-09-08T08:46:46.160Z,101423.00
2018-09-08T08:52:07.487Z,101421.00
2018-09-08T08:57:11.591Z,101416.00
2018-09-08T09:02:15.671Z,101426.00
2018-09-08T09:07:19.764Z,101430.00
2018-09-08T09:12:23.602Z,101437.00
2018-09-08T09:17:27.723Z,101419.00
2018-09-08T09:22:42.899Z,101428.00
2018-09-08T09:27:48.578Z,101428.00
2018-09-08T09:32:52.680Z,101395.00
2018-09-08T09:37:56.756Z,101407.00
2018-09-08T09:43:00.927Z,101423.00
2018-09-08T09:48:05.085Z,101388.00
2018-09-08T09:53:08.953Z,101402.00
2018-09-08T09:58:14.220Z,101388.00
2018-09-08T10:03:18.336Z,101412.00
2018-09-08T10:08:22.503Z,101410.00
2018-09-08T10:13:26.586Z,101405.00
2018-09-08T10:18:30.686Z,101412.00
2018-09-08T10:23:34.770Z,101408.00
2018-09-08T10:28:38.880Z,101411.00
2018-09-08T10:33:43.026Z,101401.00
2018-09-08T10:38:46.997Z,101392.00
2018-09-08T10:43:50.873Z,101386.00
2018-09-08T10:48:54.988Z,101383.00
2018-09-08T10:53:59.114Z,101379.00
2018-09-08T10:59:03.254Z,101381.00
2018-09-08T11:04:07.699Z,101377.00
2018-09-08T11:09:11.562Z,101370.00
2018-09-08T11:14:15.685Z,101369.00
2018-09-08T11:19:19.491Z,101370.00
2018-09-08T11:24:23.563Z,101364.00
2018-09-08T11:29:27.680Z,101350.00
2018-09-08T11:34:32.068Z,101351.00
2018-09-08T11:39:35.916Z,101344.00
2018-09-08T11:44:39.993Z,101346.00
2018-09-08T11:49:43.860Z,101340.00
2018-09-08T11:54:47.632Z,101351.00
2018-09-08T11:59:51.775Z,101341.00
2018-09-08T12:04:55.929Z,101341.00
2018-09-08T12:10:00.053Z,101342.00
2018-09-08T12:15:03.905Z,101337.00
2018-09-08T12:20:07.773Z,101333.00
2018-09-08T12:25:11.590Z,101326.00
2018-09-08T12:30:15.638Z,101330.00
2018-09-08T12:35:19.696Z,101323.00
2018-09-08T12:40:23.520Z,101326.00
2018-09-08T12:45:27.631Z,101318.00
2018-09-08T12:50:31.744Z,101308.00
2018-09-08T12:55:35.913Z,101309.00
2018-09-08T13:00:39.955Z,101314.00
2018-09-08T13:05:44.078Z,101304.00
2018-09-08T13:10:48.120Z,101294.00
2018-09-08T13:15:52.224Z,101292.00
2018-09-08T13:20:56.399Z,101280.00
2018-09-08T13:26:00.509Z,101269.00
2018-09-08T13:31:04.326Z,101268.00
2018-09-08T13:36:09.005Z,101261.00
2018-09-08T13:41:12.868Z,101263.00
2018-09-08T13:46:16.716Z,101263.00
2018-09-08T13:51:20.802Z,101263.00
2018-09-08T13:56:24.901Z,101265.00
2018-09-08T14:01:28.971Z,101260.00
2018-09-08T14:06:33.049Z,101261.00
2018-09-08T14:11:37.194Z,101267.00
2018-09-08T14:16:41.267Z,101260.00
2018-09-08T14:21:45.386Z,101267.00
2018-09-08T14:26:49.231Z,101263.00
2018-09-08T14:31:53.351Z,101252.00
2018-09-08T14:36:57.450Z,101249.00
2018-09-08T14:42:01.711Z,101250.00
2018-09-08T14:47:05.894Z,101257.00
2018-09-08T14:52:10.635Z,101251.00
2018-09-08T14:57:14.593Z,101249.00
2018-09-08T15:02:18.675Z,101245.00
2018-09-08T15:07:22.817Z,101249.00
2018-09-08T15:12:26.977Z,101241.00
2018-09-08T15:17:31.125Z,101238.00
2018-09-08T15:22:35.207Z,101226.00
2018-09-08T15:27:39.049Z,101217.00
2018-09-08T15:32:43.014Z,101223.00
2018-09-08T15:37:47.429Z,101217.00
2018-09-08T15:42:51.562Z,101212.00
2018-09-08T15:47:55.662Z,101202.00
2018-09-08T15:52:59.511Z,101214.00
2018-09-08T15:58:03.345Z,101218.00
2018-09-08T16:03:07.572Z,101214.00
2018-09-08T16:08:11.375Z,101220.00
2018-09-08T16:13:15.505Z,101220.00
2018-09-08T16:18:19.358Z,101227.00
2018-09-08T16:23:23.446Z,101243.00
2018-09-08T16:28:27.274Z,101238.00
2018-09-08T16:33:31.343Z,101240.00
2018-09-08T16:38:36.275Z,101239.00
2018-09-08T16:43:40.301Z,101242.00
2018-09-08T16:48:44.379Z,101248.00
2018-09-08T16:53:48.460Z,101256.00
2018-09-08T16:58:52.640Z,101249.00
2018-09-08T17:03:57.099Z,101249.00
2018-09-08T17:09:00.950Z,101253.00
2018-09-08T17:14:04.818Z,101236.00
2018-09-08T17:19:08.711Z,101225.00
2018-09-08T17:24:12.818Z,101213.00
2018-09-08T17:29:16.967Z,101224.00
2018-09-08T17:34:20.817Z,101228.00
2018-09-08T17:39:24.663Z,101235.00
2018-09-08T17:44:28.811Z,101236.00
2018-09-08T17:49:32.911Z,101239.00
2018-09-08T17:54:37.024Z,101247.00
2018-09-08T17:59:40.886Z,101252.00
2018-09-08T18:04:45.012Z,101248.00
2018-09-08T18:09:48.871Z,101246.00
2018-09-08T18:14:52.982Z,101257.00
2018-09-08T18:19:57.080Z,101264.00
2018-09-08T18:25:07.498Z,101263.00
2018-09-08T18:30:11.344Z,101261.00
2018-09-08T18:35:21.186Z,101265.00
2018-09-08T18:40:25.286Z,101267.00
2018-09-08T18:45:29.137Z,101275.00
2018-09-08T18:50:33.216Z,101273.00
2018-09-08T18:55:37.460Z,101279.00
2018-09-08T19:00:41.500Z,101283.00
2018-09-08T19:05:45.619Z,101289.00
2018-09-08T19:10:49.662Z,101295.00
2018-09-08T19:15:53.703Z,101298.00
2018-09-08T19:20:57.514Z,101296.00
2018-09-08T19:26:01.655Z,101288.00
2018-09-08T19:31:05.599Z,101284.00
2018-09-08T19:36:09.641Z,101284.00
2018-09-08T19:41:13.485Z,101291.00
2018-09-08T19:46:22.911Z,101291.00
2018-09-08T19:51:26.750Z,101289.00
2018-09-08T19:56:36.200Z,101292.00
2018-09-08T20:01:40.252Z,101303.00
2018-09-08T20:06:44.302Z,101298.00
2018-09-08T20:11:48.131Z,101299.00
2018-09-08T20:16:52.283Z,101309.00
2018-09-08T20:21:56.332Z,101308.00
2018-09-08T20:27:00.595Z,101314.00
2018-09-08T20:32:04.414Z,101318.00
2018-09-08T20:37:08.231Z,101323.00
2018-09-08T20:42:12.287Z,101317.00
2018-09-08T20:47:16.495Z,101322.00
2018-09-08T20:52:20.578Z,101326.00
2018-09-08T20:57:24.616Z,101316.00
2018-09-08T21:02:28.471Z,101306.00
2018-09-08T21:07:32.544Z,101296.00
2018-09-08T21:12:36.564Z,101299.00
2018-09-08T21:17:40.372Z,101307.00
2018-09-08T21:22:44.465Z,101315.00
2018-09-08T21:27:48.301Z,101305.00
2018-09-08T21:32:52.384Z,101310.00
2018-09-08T21:37:56.197Z,101294.00
2018-09-08T21:43:00.045Z,101288.00
2018-09-08T21:48:04.161Z,101280.00
2018-09-08T21:53:08.214Z,101269.00
2018-09-08T21:58:12.298Z,101259.00
2018-09-08T22:03:16.391Z,101244.00
2018-09-08T22:08:20.830Z,101205.00
2018-09-08T22:13:24.891Z,101170.00
2018-09-08T22:18:29.327Z,101102.00
2018-09-08T22:23:33.387Z,101060.00
2018-09-08T22:28:37.782Z,101043.00
2018-09-08T22:33:41.850Z,101061.00
2018-09-08T22:38:45.774Z,101055.00
2018-09-08T22:43:49.582Z,101051.00
2018-09-08T22:48:53.455Z,101027.00
2018-09-08T22:53:57.512Z,101016.00
2018-09-08T22:59:01.351Z,101013.00
2018-09-08T23:04:05.296Z,101007.00
2018-09-08T23:09:09.126Z,101035.00
2018-09-08T23:14:13.201Z,101024.00
2018-09-08T23:19:17.025Z,101017.00
2018-09-08T23:24:20.845Z,100980.00
2018-09-08T23:29:24.993Z,100952.00
2018-09-08T23:34:29.111Z,100937.00
2018-09-08T23:39:32.939Z,100954.00
2018-09-08T23:44:37.056Z,100933.00
2018-09-08T23:49:41.125Z,100902.00
2018-09-08T23:54:45.220Z,100786.00
2018-09-08T23:59:49.076Z,100733.00
